Time;durP1;ratioP1;P1;durP2;ratioP2;P2;SDS_P1;SDS_P2;PMS_P1;PMS_P2;Temp;Humidity;BMP_temperature;BMP_pressure;BME280_temperature;BME280_humidity;BME280_pressure;Samples;Min_cycle;Max_cycle;Signal;HPM_P1;HPM_P2
2023/03/04 00:01:42;;;;;;;16.23;3.08;;;7.90;99.90;;;;;;5092987;28;20020;-70
2023/03/04 00:04:08;;;;;;;14.23;3.05;;;7.90;99.90;;;;;;5094246;28;20108;-70
2023/03/04 00:06:33;;;;;;;19.95;2.78;;;7.80;99.90;;;;;;5102478;28;20047;-70
2023/03/04 00:08:59;;;;;;;15.85;2.15;;;7.80;99.90;;;;;;5076394;28;20027;-70
2023/03/04 00:11:25;;;;;;;11.73;1.75;;;7.70;99.90;;;;;;5094268;28;20509;-69
2023/03/04 00:13:50;;;;;;;7.22;1.42;;;7.70;99.90;;;;;;5081714;28;20418;-70
2023/03/04 00:16:16;;;;;;;13.45;1.92;;;7.70;99.90;;;;;;5077183;28;20093;-72
2023/03/04 00:18:41;;;;;;;9.98;1.63;;;7.70;99.90;;;;;;5094739;28;20040;-69
2023/03/04 00:21:07;;;;;;;16.48;2.83;;;7.70;99.90;;;;;;5094943;28;20028;-70
2023/03/04 00:23:33;;;;;;;11.05;2.13;;;7.70;99.90;;;;;;5090117;28;20032;-69
2023/03/04 00:25:58;;;;;;;13.70;2.30;;;7.80;99.90;;;;;;5090985;28;20081;-70
2023/03/04 00:28:24;;;;;;;12.07;2.72;;;7.80;99.90;;;;;;5094218;28;20444;-71
2023/03/04 00:30:50;;;;;;;17.90;3.63;;;7.80;99.90;;;;;;5089266;28;20035;-74
2023/03/04 00:33:15;;;;;;;12.57;2.20;;;7.80;99.90;;;;;;5096659;28;20103;-71
2023/03/04 00:35:41;;;;;;;16.70;3.40;;;7.80;99.90;;;;;;5100155;28;20102;-71
2023/03/04 00:38:07;;;;;;;14.82;2.15;;;7.90;99.90;;;;;;5097140;28;20040;-70
2023/03/04 00:40:33;;;;;;;12.18;1.92;;;7.90;99.90;;;;;;5096051;28;20464;-70
2023/03/04 00:42:59;;;;;;;24.95;5.45;;;7.90;99.90;;;;;;5099799;28;20023;-71
2023/03/04 00:45:25;;;;;;;16.67;2.75;;;7.90;99.90;;;;;;5102211;28;20034;-70
2023/03/04 00:47:50;;;;;;;12.13;2.53;;;7.90;99.90;;;;;;5094520;28;20099;-73
2023/03/04 00:50:16;;;;;;;5.78;1.58;;;7.90;99.90;;;;;;5097329;28;20116;-70
2023/03/04 00:52:41;;;;;;;9.65;1.75;;;7.90;99.90;;;;;;5097249;28;20098;-70
2023/03/04 00:55:08;;;;;;;11.07;1.75;;;7.90;99.90;;;;;;5101087;28;20032;-70
2023/03/04 00:57:33;;;;;;;16.85;3.55;;;7.90;99.90;;;;;;5095347;28;20038;-70
2023/03/04 00:59:59;;;;;;;15.10;3.42;;;7.90;99.90;;;;;;5091808;28;20102;-70
2023/03/04 01:02:25;;;;;;;13.02;2.78;;;7.80;99.90;;;;;;5105891;28;20031;-70
2023/03/04 01:04:51;;;;;;;14.25;2.20;;;7.90;99.90;;;;;;5093220;28;20104;-75
2023/03/04 01:07:17;;;;;;;12.60;2.60;;;7.80;99.90;;;;;;5103310;28;20086;-69
2023/03/04 01:09:42;;;;;;;16.42;2.70;;;7.90;99.90;;;;;;5095865;28;20024;-71
2023/03/04 01:12:08;;;;;;;14.60;2.67;;;7.90;99.90;;;;;;5097484;28;20031;-70
2023/03/04 01:14:34;;;;;;;9.77;2.28;;;7.90;99.90;;;;;;5084623;28;20383;-69
2023/03/04 01:16:59;;;;;;;8.43;2.00;;;7.90;99.90;;;;;;5096739;28;20039;-71
2023/03/04 01:19:25;;;;;;;15.05;3.58;;;8.00;99.90;;;;;;5092318;28;20388;-71
2023/03/04 01:21:51;;;;;;;14.75;1.95;;;8.00;99.90;;;;;;5084106;28;20077;-70
2023/03/04 01:24:16;;;;;;;12.45;2.65;;;8.00;99.90;;;;;;5108935;28;20137;-73
2023/03/04 01:26:42;;;;;;;12.13;2.65;;;8.00;99.90;;;;;;5092093;28;20067;-68
2023/03/04 01:29:07;;;;;;;16.92;2.92;;;8.00;99.90;;;;;;5097791;28;20059;-70
2023/03/04 01:31:33;;;;;;;11.32;1.73;;;8.00;99.90;;;;;;5094534;28;20032;-71
2023/03/04 01:33:58;;;;;;;15.32;2.10;;;8.00;99.90;;;;;;5091644;28;20039;-73
2023/03/04 01:36:24;;;;;;;16.90;2.60;;;8.00;99.90;;;;;;5098949;28;20035;-71
2023/03/04 01:38:50;;;;;;;21.35;3.33;;;8.10;99.90;;;;;;5090684;28;20032;-69
2023/03/04 01:41:20;;;;;;;13.85;2.15;;;8.00;99.90;;;;;;5079364;28;20032;-73
2023/03/04 01:43:45;;;;;;;11.30;1.75;;;8.00;99.90;;;;;;5094419;28;20541;-68
2023/03/04 01:46:13;;;;;;;10.60;1.13;;;8.00;99.90;;;;;;5089876;28;20044;-71
2023/03/04 01:48:40;;;;;;;7.93;1.27;;;8.00;99.90;;;;;;5089800;28;20470;-73
2023/03/04 01:51:10;;;;;;;7.43;1.85;;;7.90;99.90;;;;;;5093063;28;20044;-73
2023/03/04 01:53:36;;;;;;;13.20;2.05;;;7.90;99.90;;;;;;5103707;28;20028;-71
2023/03/04 01:56:18;;;;;;;14.82;1.75;;;7.80;99.90;;;;;;5082206;28;20081;-69
2023/03/04 01:58:43;;;;;;;14.57;3.53;;;7.80;99.90;;;;;;5076641;28;20020;-70
2023/03/04 02:01:13;;;;;;;8.73;1.88;;;7.80;99.90;;;;;;5086853;28;20395;-71
2023/03/04 02:03:39;;;;;;;13.80;1.75;;;7.80;99.90;;;;;;5096184;28;20483;-73
2023/03/04 02:06:05;;;;;;;12.68;2.15;;;7.80;99.90;;;;;;5087938;28;20040;-73
2023/03/04 02:08:30;;;;;;;16.95;2.67;;;7.80;99.90;;;;;;5095899;28;20034;-69
2023/03/04 02:10:56;;;;;;;15.90;4.25;;;7.80;99.90;;;;;;5100706;28;20043;-69
2023/03/04 02:13:22;;;;;;;11.23;1.85;;;7.80;99.90;;;;;;5083014;28;20027;-70
2023/03/04 02:15:48;;;;;;;14.43;2.58;;;7.80;99.90;;;;;;5101129;28;20045;-70
2023/03/04 02:18:21;;;;;;;15.32;2.22;;;7.80;99.90;;;;;;5099770;28;20439;-70
2023/03/04 02:21:06;;;;;;;10.65;1.55;;;7.80;99.90;;;;;;5101042;28;20100;-70
2023/03/04 02:23:48;;;;;;;15.82;2.95;;;7.90;99.90;;;;;;5102402;28;20079;-69
2023/03/04 02:26:18;;;;;;;10.05;2.10;;;7.80;99.90;;;;;;5094476;28;20040;-70
2023/03/04 02:28:44;;;;;;;14.73;2.28;;;7.90;99.90;;;;;;5101054;28;20040;-69
2023/03/04 02:31:31;;;;;;;12.88;1.92;;;7.90;99.90;;;;;;5099584;28;20039;-71
2023/03/04 02:34:04;;;;;;;12.90;2.92;;;7.90;99.90;;;;;;5094657;28;20028;-71
2023/03/04 02:36:31;;;;;;;11.32;2.17;;;7.90;99.90;;;;;;5102407;28;20039;-73
2023/03/04 02:39:03;;;;;;;11.48;2.40;;;7.90;99.90;;;;;;5103664;28;20028;-74
2023/03/04 02:41:29;;;;;;;10.95;2.13;;;7.90;99.90;;;;;;5083020;28;20422;-74
2023/03/04 02:43:55;;;;;;;12.88;2.17;;;7.90;99.90;;;;;;5103006;28;20103;-72
2023/03/04 02:46:22;;;;;;;7.00;1.10;;;7.90;99.90;;;;;;5102360;28;20031;-71
2023/03/04 02:48:49;;;;;;;16.65;2.05;;;7.80;99.90;;;;;;5101879;28;20027;-73
2023/03/04 02:51:14;;;;;;;12.23;1.92;;;7.80;99.90;;;;;;5106090;28;20108;-74
2023/03/04 02:53:40;;;;;;;13.55;2.92;;;7.80;99.90;;;;;;5104092;28;20036;-74
2023/03/04 02:56:06;;;;;;;12.30;1.77;;;7.80;99.90;;;;;;5096970;28;20097;-73
2023/03/04 02:58:32;;;;;;;10.32;1.77;;;7.80;99.90;;;;;;5104033;28;20525;-73
2023/03/04 03:00:57;;;;;;;11.88;2.53;;;7.80;99.90;;;;;;5093936;28;20048;-72
2023/03/04 03:03:23;;;;;;;11.60;2.10;;;7.80;99.90;;;;;;5087300;28;20115;-75
2023/03/04 03:05:48;;;;;;;8.80;2.33;;;7.80;99.90;;;;;;5092254;28;20047;-73
2023/03/04 03:08:14;;;;;;;14.38;1.90;;;7.80;99.90;;;;;;5082286;28;20119;-75
2023/03/04 03:10:40;;;;;;;7.90;1.83;;;7.80;99.90;;;;;;5091999;28;20028;-73
2023/03/04 03:13:05;;;;;;;9.98;1.90;;;7.80;99.90;;;;;;5093142;28;20528;-74
2023/03/04 03:15:31;;;;;;;12.00;2.17;;;7.80;99.90;;;;;;5092723;28;20028;-70
2023/03/04 03:17:57;;;;;;;12.55;2.20;;;7.80;99.90;;;;;;5092472;28;20483;-71
2023/03/04 03:20:22;;;;;;;12.27;2.10;;;7.80;99.90;;;;;;5080407;28;20036;-76
2023/03/04 03:22:48;;;;;;;13.32;2.30;;;7.80;99.90;;;;;;5091319;28;20030;-75
2023/03/04 03:25:15;;;;;;;10.77;1.80;;;7.80;99.90;;;;;;5091770;28;20392;-72
2023/03/04 03:27:41;;;;;;;7.28;1.80;;;7.70;99.90;;;;;;5091258;28;20020;-73
2023/03/04 03:30:09;;;;;;;12.18;2.05;;;7.70;99.90;;;;;;5089378;28;20169;-70
2023/03/04 03:32:35;;;;;;;9.93;1.92;;;7.70;99.90;;;;;;5094201;28;20052;-73
2023/03/04 03:35:01;;;;;;;6.78;1.20;;;7.70;99.90;;;;;;5090767;28;20471;-73
2023/03/04 03:37:26;;;;;;;11.40;1.52;;;7.60;99.90;;;;;;5092384;28;20099;-75
2023/03/04 03:39:52;;;;;;;10.40;1.90;;;7.60;99.90;;;;;;5091700;28;20032;-73
2023/03/04 03:42:17;;;;;;;13.85;1.52;;;7.60;99.90;;;;;;5091571;28;20036;-71
2023/03/04 03:44:43;;;;;;;9.75;1.90;;;7.60;99.90;;;;;;5091659;28;20042;-73
2023/03/04 03:47:09;;;;;;;10.45;1.98;;;7.60;99.90;;;;;;5088907;28;20044;-75
2023/03/04 03:49:34;;;;;;;13.10;2.20;;;7.60;99.90;;;;;;5089321;28;20500;-73
2023/03/04 03:52:00;;;;;;;16.50;2.72;;;7.70;99.90;;;;;;5090782;28;20027;-72
2023/03/04 03:54:25;;;;;;;8.48;2.35;;;7.70;99.90;;;;;;5090724;28;20023;-71
2023/03/04 03:56:51;;;;;;;9.50;2.03;;;7.70;99.90;;;;;;5076069;28;20030;-71
2023/03/04 03:59:16;;;;;;;9.82;2.72;;;7.70;99.90;;;;;;5099297;28;20103;-76
2023/03/04 04:01:42;;;;;;;8.38;1.90;;;7.70;99.90;;;;;;5085172;28;20552;-72
2023/03/04 04:04:08;;;;;;;19.08;2.60;;;7.70;99.90;;;;;;5101881;28;20396;-72
2023/03/04 04:06:33;;;;;;;11.38;1.88;;;7.80;99.90;;;;;;5109471;28;20063;-75
2023/03/04 04:08:59;;;;;;;14.15;2.42;;;7.80;99.90;;;;;;5101561;28;20074;-71
2023/03/04 04:11:24;;;;;;;12.20;2.10;;;7.80;99.90;;;;;;5110956;28;20437;-76
2023/03/04 04:13:50;;;;;;;10.68;2.08;;;7.80;99.90;;;;;;5099270;28;20528;-74
2023/03/04 04:16:16;;;;;;;6.75;1.50;;;7.90;99.90;;;;;;5105267;28;20371;-71
2023/03/04 04:18:41;;;;;;;8.98;1.27;;;7.90;99.90;;;;;;5091727;28;20036;-73
2023/03/04 04:21:07;;;;;;;10.48;1.92;;;7.80;99.90;;;;;;5097884;28;20066;-72
2023/03/04 04:23:32;;;;;;;11.27;2.28;;;7.80;99.90;;;;;;5110103;28;20038;-74
2023/03/04 04:25:58;;;;;;;14.02;1.92;;;7.80;99.90;;;;;;5096280;28;20424;-72
2023/03/04 04:28:24;;;;;;;9.32;1.55;;;7.80;99.90;;;;;;5103068;28;20043;-69
2023/03/04 04:30:50;;;;;;;8.68;1.60;;;7.80;99.90;;;;;;5099609;28;20469;-72
2023/03/04 04:33:16;;;;;;;8.40;2.08;;;7.90;99.90;;;;;;5110424;28;20031;-73
2023/03/04 04:35:41;;;;;;;11.25;1.83;;;7.80;99.90;;;;;;5087264;28;20035;-71
2023/03/04 04:38:08;;;;;;;11.45;2.13;;;7.80;99.90;;;;;;5090810;28;20022;-70
2023/03/04 04:40:34;;;;;;;11.10;2.25;;;7.70;99.90;;;;;;5111604;28;20036;-73
2023/03/04 04:42:59;;;;;;;12.55;1.95;;;7.80;99.90;;;;;;5100894;28;20035;-73
2023/03/04 04:45:25;;;;;;;8.55;1.45;;;7.70;99.90;;;;;;5095212;28;20141;-73
2023/03/04 04:47:52;;;;;;;11.70;2.58;;;7.70;99.90;;;;;;5097260;28;20027;-73
2023/03/04 04:50:18;;;;;;;8.85;1.55;;;7.70;99.90;;;;;;5104503;28;20024;-69
2023/03/04 04:52:43;;;;;;;8.85;1.98;;;7.70;99.90;;;;;;5104101;28;20051;-71
2023/03/04 04:55:09;;;;;;;10.40;1.80;;;7.70;99.90;;;;;;5100760;28;20040;-70
2023/03/04 04:57:35;;;;;;;6.72;1.60;;;7.80;99.90;;;;;;5097785;28;20554;-71
2023/03/04 05:00:02;;;;;;;9.75;1.60;;;7.80;99.90;;;;;;5096575;28;20081;-71
2023/03/04 05:02:28;;;;;;;10.40;2.22;;;7.80;99.90;;;;;;5091790;28;20032;-70
2023/03/04 05:04:53;;;;;;;9.75;1.60;;;7.80;99.90;;;;;;5093863;28;20021;-71
2023/03/04 05:07:19;;;;;;;8.50;1.58;;;7.80;99.90;;;;;;5096230;28;20371;-69
2023/03/04 05:09:44;;;;;;;11.40;2.17;;;7.80;99.90;;;;;;5097836;28;20020;-73
2023/03/04 05:12:10;;;;;;;7.65;1.15;;;7.80;99.90;;;;;;5100639;28;20487;-71
2023/03/04 05:14:36;;;;;;;8.05;1.55;;;7.70;99.90;;;;;;5101333;28;20348;-69
2023/03/04 05:17:02;;;;;;;5.50;1.25;;;7.70;99.90;;;;;;5096258;28;20032;-71
2023/03/04 05:19:27;;;;;;;6.53;1.42;;;7.70;99.90;;;;;;5110047;28;20028;-74
2023/03/04 05:21:53;;;;;;;6.30;1.38;;;7.70;99.90;;;;;;5098458;28;20081;-69
2023/03/04 05:24:18;;;;;;;5.60;1.30;;;7.80;99.90;;;;;;5094180;28;20089;-71
2023/03/04 05:26:44;;;;;;;8.48;1.92;;;7.80;99.90;;;;;;5095435;28;20079;-75
2023/03/04 05:29:10;;;;;;;7.03;1.13;;;7.80;99.90;;;;;;5095286;28;20119;-71
2023/03/04 05:31:35;;;;;;;6.95;1.23;;;7.80;99.90;;;;;;5106918;28;20054;-75
2023/03/04 05:34:01;;;;;;;10.65;1.95;;;7.80;99.90;;;;;;5102336;28;20038;-74
2023/03/04 05:36:27;;;;;;;9.18;1.73;;;7.80;99.90;;;;;;5094684;28;20027;-71
2023/03/04 05:38:52;;;;;;;13.25;2.00;;;7.90;99.90;;;;;;5083017;28;20542;-71
2023/03/04 05:41:21;;;;;;;11.20;1.50;;;7.90;99.90;;;;;;5103707;28;20028;-71
2023/03/04 05:43:50;;;;;;;5.43;1.15;;;7.90;99.90;;;;;;5104355;28;20169;-74
2023/03/04 05:46:24;;;;;;;10.70;1.73;;;7.90;99.90;;;;;;5101131;28;20051;-71
2023/03/04 05:48:53;;;;;;;5.30;0.88;;;7.90;99.90;;;;;;5105199;28;20092;-72
2023/03/04 05:51:19;;;;;;;5.85;1.58;;;7.90;99.90;;;;;;5098425;28;20036;-73
2023/03/04 05:53:45;;;;;;;7.28;3.28;;;7.90;99.90;;;;;;5100021;28;20028;-71
2023/03/04 05:56:13;;;;;;;4.22;1.05;;;7.90;99.90;;;;;;5092389;28;20024;-71
2023/03/04 05:58:39;;;;;;;5.95;1.40;;;8.00;99.90;;;;;;5100875;28;20023;-70
2023/03/04 06:01:05;;;;;;;8.38;1.38;;;8.00;99.90;;;;;;5096419;28;20032;-69
2023/03/04 06:03:31;;;;;;;5.15;1.33;;;8.00;99.90;;;;;;5098645;28;20741;-71
2023/03/04 06:05:57;;;;;;;10.85;1.38;;;7.90;99.90;;;;;;5094776;28;20131;-74
2023/03/04 06:08:23;;;;;;;7.82;1.27;;;7.90;99.90;;;;;;5097779;28;20066;-72
2023/03/04 06:10:52;;;;;;;7.68;1.10;;;7.90;99.90;;;;;;5099784;28;20016;-70
2023/03/04 06:13:18;;;;;;;8.32;1.20;;;7.90;99.90;;;;;;5100636;28;20063;-68
2023/03/04 06:15:44;;;;;;;12.32;1.67;;;7.90;99.90;;;;;;5097165;28;20070;-70
2023/03/04 06:18:10;;;;;;;3.38;1.10;;;7.90;99.90;;;;;;5096924;28;20028;-70
2023/03/04 06:20:36;;;;;;;4.53;1.30;;;7.90;99.90;;;;;;5097989;28;20032;-71
2023/03/04 06:23:02;;;;;;;5.35;1.70;;;7.90;99.90;;;;;;5108101;28;20024;-68
2023/03/04 06:25:28;;;;;;;9.18;1.42;;;7.90;99.90;;;;;;5104948;28;20493;-73
2023/03/04 06:27:53;;;;;;;7.13;1.17;;;7.90;99.90;;;;;;5101538;28;20024;-71
2023/03/04 06:30:19;;;;;;;6.18;1.38;;;7.90;99.90;;;;;;5101919;28;20058;-70
2023/03/04 06:32:46;;;;;;;4.93;1.10;;;7.80;99.90;;;;;;5096072;28;20028;-71
2023/03/04 06:35:13;;;;;;;4.15;1.00;;;7.70;99.90;;;;;;5101781;28;20061;-69
2023/03/04 06:37:38;;;;;;;4.70;0.88;;;7.60;99.90;;;;;;5089428;28;20016;-68
2023/03/04 06:40:06;;;;;;;5.30;1.33;;;7.50;99.90;;;;;;5109757;28;20399;-70
2023/03/04 06:42:32;;;;;;;6.65;0.98;;;7.40;99.90;;;;;;5109758;28;20023;-72
2023/03/04 06:44:58;;;;;;;5.05;1.00;;;7.40;99.90;;;;;;5101034;28;20031;-67
2023/03/04 06:47:24;;;;;;;4.35;0.80;;;7.40;99.90;;;;;;5113078;28;20048;-71
2023/03/04 06:49:49;;;;;;;6.53;1.17;;;7.40;99.90;;;;;;5095745;28;20039;-70
2023/03/04 06:52:15;;;;;;;6.20;1.50;;;7.30;99.90;;;;;;5103740;28;20524;-72
2023/03/04 06:54:40;;;;;;;7.85;1.38;;;7.40;99.90;;;;;;5096962;28;20103;-71
2023/03/04 06:57:06;;;;;;;6.40;1.30;;;7.40;99.90;;;;;;5094549;28;20032;-72
2023/03/04 06:59:35;;;;;;;8.27;2.10;;;7.40;99.90;;;;;;5077933;28;20028;-70
2023/03/04 07:02:01;;;;;;;6.93;1.50;;;7.50;99.90;;;;;;5090435;28;20042;-69
2023/03/04 07:04:26;;;;;;;7.07;1.35;;;7.60;99.90;;;;;;5097134;28;20029;-70
2023/03/04 07:06:52;;;;;;;6.15;1.55;;;7.60;99.90;;;;;;5093239;28;20073;-71
2023/03/04 07:09:18;;;;;;;5.13;1.23;;;7.70;99.90;;;;;;5096694;28;20036;-71
2023/03/04 07:11:44;;;;;;;6.55;1.67;;;7.80;99.90;;;;;;5096453;28;20114;-71
2023/03/04 07:14:10;;;;;;;3.92;1.40;;;7.90;99.90;;;;;;5102121;28;20020;-73
2023/03/04 07:16:37;;;;;;;6.47;1.65;;;7.90;99.90;;;;;;5103465;28;20031;-70
2023/03/04 07:19:04;;;;;;;4.63;1.23;;;7.90;99.90;;;;;;5098275;28;20062;-72
2023/03/04 07:21:29;;;;;;;7.18;1.38;;;7.90;99.90;;;;;;5082818;28;20498;-70
2023/03/04 07:23:55;;;;;;;8.35;1.70;;;8.00;99.90;;;;;;5095057;28;20038;-71
2023/03/04 07:26:20;;;;;;;8.60;1.90;;;8.10;99.90;;;;;;5094326;28;20503;-69
2023/03/04 07:28:46;;;;;;;7.18;1.40;;;8.20;99.90;;;;;;5095135;28;20125;-70
2023/03/04 07:31:28;;;;;;;6.25;2.45;;;8.30;99.90;;;;;;5076725;28;20697;-72
2023/03/04 07:33:56;;;;;;;15.33;4.20;;;8.30;99.90;;;;;;5094632;28;20020;-70
2023/03/04 07:36:22;;;;;;;12.75;3.35;;;8.30;99.90;;;;;;5093841;28;20020;-71
2023/03/04 07:38:50;;;;;;;14.43;4.47;;;8.30;99.90;;;;;;5077903;28;20032;-70
2023/03/04 07:41:17;;;;;;;11.25;2.70;;;8.40;99.90;;;;;;5092841;28;20028;-73
2023/03/04 07:43:42;;;;;;;11.63;3.78;;;8.50;99.90;;;;;;5092853;28;20020;-69
2023/03/04 07:46:09;;;;;;;12.95;2.42;;;8.50;99.90;;;;;;5090994;28;20552;-70
2023/03/04 07:48:36;;;;;;;6.50;2.30;;;8.50;99.90;;;;;;5093862;28;20052;-69
2023/03/04 07:51:13;;;;;;;8.48;1.63;;;8.50;99.90;;;;;;5093395;28;20024;-72
2023/03/04 07:53:40;;;;;;;6.63;0.98;;;8.40;99.90;;;;;;5093921;28;20132;-73
2023/03/04 07:56:10;;;;;;;11.95;1.60;;;8.40;99.90;;;;;;5094869;28;20032;-72
2023/03/04 07:58:35;;;;;;;3.85;1.30;;;8.30;99.90;;;;;;5090043;28;20447;-71
2023/03/04 08:01:17;;;;;;;13.57;2.95;;;8.30;99.90;;;;;;5093409;28;20031;-69
2023/03/04 08:03:43;;;;;;;9.65;3.55;;;8.20;99.90;;;;;;5100967;28;20474;-68
2023/03/04 08:06:12;;;;;;;11.80;2.63;;;8.20;99.90;;;;;;5094863;28;20048;-69
2023/03/04 08:08:38;;;;;;;7.00;2.78;;;8.30;99.90;;;;;;5094358;28;20071;-68
2023/03/04 08:11:08;;;;;;;11.25;2.47;;;8.50;99.90;;;;;;5095200;28;20039;-68
2023/03/04 08:13:34;;;;;;;5.20;1.60;;;8.70;99.90;;;;;;5094620;28;20533;-71
2023/03/04 08:16:00;;;;;;;8.52;1.90;;;8.80;99.90;;;;;;5074329;28;20127;-72
2023/03/04 08:18:25;;;;;;;9.40;1.67;;;8.80;99.90;;;;;;5094775;28;20107;-73
2023/03/04 08:20:51;;;;;;;8.32;2.10;;;8.90;99.90;;;;;;5094135;28;20031;-71
2023/03/04 08:23:17;;;;;;;13.10;3.08;;;9.00;99.90;;;;;;5094379;28;20494;-69
2023/03/04 08:25:43;;;;;;;10.63;3.20;;;9.20;99.90;;;;;;5093672;28;20036;-71
2023/03/04 08:28:11;;;;;;;9.70;2.13;;;9.30;99.90;;;;;;5092495;28;20116;-73
2023/03/04 08:30:37;;;;;;;20.77;3.90;;;9.50;99.90;;;;;;5099605;28;20016;-71
2023/03/04 08:33:03;;;;;;;10.75;2.30;;;9.70;99.90;;;;;;5074558;28;20529;-69
2023/03/04 08:35:29;;;;;;;7.50;1.77;;;9.90;99.90;;;;;;5109850;28;20035;-70
2023/03/04 08:37:55;;;;;;;7.30;1.33;;;9.90;99.90;;;;;;5096740;28;20028;-70
2023/03/04 08:40:21;;;;;;;5.60;1.95;;;9.80;99.90;;;;;;5103347;28;20138;-73
2023/03/04 08:42:46;;;;;;;10.02;1.38;;;9.80;99.90;;;;;;5094465;28;20028;-75
2023/03/04 08:45:12;;;;;;;8.65;1.77;;;9.80;99.90;;;;;;5099202;28;20032;-74
2023/03/04 08:47:39;;;;;;;11.02;2.80;;;9.90;99.90;;;;;;5091138;28;20106;-72
2023/03/04 08:50:06;;;;;;;7.05;2.50;;;10.00;99.90;;;;;;5102492;28;20023;-73
2023/03/04 08:52:31;;;;;;;12.05;2.55;;;10.10;99.90;;;;;;5098131;28;20019;-71
2023/03/04 08:54:57;;;;;;;7.07;1.85;;;10.30;99.90;;;;;;5110258;28;20388;-73
2023/03/04 08:57:22;;;;;;;11.05;2.30;;;10.30;99.90;;;;;;5078145;28;20490;-70
2023/03/04 08:59:48;;;;;;;7.10;1.80;;;10.30;99.90;;;;;;5107887;28;20111;-67
2023/03/04 09:02:14;;;;;;;11.95;2.20;;;10.30;99.90;;;;;;5089882;28;20036;-65
2023/03/04 09:04:39;;;;;;;3.90;1.65;;;10.20;99.90;;;;;;5105001;28;20100;-67
2023/03/04 09:07:05;;;;;;;8.95;1.58;;;10.10;99.90;;;;;;5109879;28;20053;-70
2023/03/04 09:09:31;;;;;;;5.53;1.45;;;10.00;99.90;;;;;;5096684;28;20024;-67
2023/03/04 09:11:56;;;;;;;6.75;1.10;;;9.80;99.90;;;;;;5107389;28;20032;-66
2023/03/04 09:14:22;;;;;;;10.13;1.70;;;9.70;99.90;;;;;;5092786;28;20032;-68
2023/03/04 09:16:47;;;;;;;7.13;1.27;;;9.70;99.90;;;;;;5092774;28;20032;-68
2023/03/04 09:19:13;;;;;;;10.60;2.33;;;9.60;99.90;;;;;;5102979;28;20038;-68
2023/03/04 09:21:39;;;;;;;12.38;2.20;;;9.50;99.90;;;;;;5107024;28;20123;-72
2023/03/04 09:24:04;;;;;;;4.63;1.45;;;9.40;99.90;;;;;;5100086;28;20437;-69
2023/03/04 09:26:30;;;;;;;11.70;1.95;;;9.30;99.90;;;;;;5102142;28;20062;-69
2023/03/04 09:28:59;;;;;;;12.98;2.55;;;9.30;99.90;;;;;;5090092;28;20044;-70
2023/03/04 09:31:26;;;;;;;12.52;2.03;;;9.40;99.90;;;;;;5093728;28;20149;-69
2023/03/04 09:33:53;;;;;;;16.00;2.20;;;9.50;99.90;;;;;;5111486;28;20015;-70
2023/03/04 09:36:19;;;;;;;9.57;1.77;;;9.60;99.90;;;;;;5085736;28;20086;-68
2023/03/04 09:38:44;;;;;;;9.13;2.58;;;9.70;99.90;;;;;;5104991;28;20402;-72
2023/03/04 09:41:20;;;;;;;15.63;2.20;;;10.00;99.90;;;;;;5095734;28;20032;-69
2023/03/04 09:43:47;;;;;;;12.93;2.05;;;10.40;99.90;;;;;;5088119;28;20027;-72
2023/03/04 09:46:31;;;;;;;7.65;1.77;;;10.60;99.90;;;;;;5093530;28;20089;-66
2023/03/04 09:48:56;;;;;;;6.63;1.58;;;10.60;99.90;;;;;;5097039;28;20024;-70
2023/03/04 09:51:34;;;;;;;7.55;1.60;;;10.60;99.90;;;;;;5092988;28;20088;-69
2023/03/04 09:54:24;;;;;;;8.88;1.85;;;10.70;99.90;;;;;;5092358;28;20031;-68
2023/03/04 09:56:56;;;;;;;11.32;2.15;;;10.80;99.90;;;;;;5097023;28;20459;-70
2023/03/04 09:59:28;;;;;;;;;;;10.90;99.90;;;;;;5094952;28;20088;-69
2023/03/04 10:01:58;;;;;;;;;;;11.10;99.90;;;;;;5100948;28;19970;-71
2023/03/04 10:04:36;;;;;;;9.68;2.42;;;11.40;99.90;;;;;;5109520;28;19915;-70
2023/03/04 10:07:03;;;;;;;13.25;2.13;;;11.80;99.90;;;;;;5078325;28;20035;-69
2023/03/04 10:09:48;;;;;;;11.93;2.42;;;11.90;99.90;;;;;;5095414;28;20388;-69
2023/03/04 10:12:22;;;;;;;7.25;1.95;;;11.80;99.90;;;;;;5103972;28;20027;-69
2023/03/04 10:15:09;;;;;;;8.60;1.90;;;11.70;99.90;;;;;;5105479;28;20027;-70
2023/03/04 10:17:45;;;;;;;11.48;2.40;;;11.50;99.90;;;;;;5090140;28;20383;-72
2023/03/04 10:20:14;;;;;;;10.20;2.00;;;11.40;99.90;;;;;;5091404;28;20054;-72
2023/03/04 10:22:51;;;;;;;13.18;2.72;;;11.30;99.90;;;;;;5091627;28;20035;-72
2023/03/04 10:25:24;;;;;;;10.95;2.30;;;11.30;99.90;;;;;;5079588;28;20040;-70
2023/03/04 10:27:57;;;;;;;5.95;1.65;;;11.70;99.90;;;;;;5086944;28;20024;-72
2023/03/04 10:30:41;;;;;;;9.98;1.92;;;12.00;99.90;;;;;;5085238;28;20071;-69
2023/03/04 10:33:23;;;;;;;4.82;1.23;;;12.60;99.90;;;;;;5096676;28;20032;-70
2023/03/04 10:35:59;;;;;;;10.45;2.10;;;13.00;99.90;;;;;;5113005;28;20031;-70
2023/03/04 10:38:27;;;;;;;6.28;1.35;;;12.90;99.90;;;;;;5103855;28;20035;-67
2023/03/04 10:40:53;;;;;;;7.38;1.52;;;12.70;99.90;;;;;;5112919;28;20360;-69
2023/03/04 10:43:20;;;;;;;5.47;1.63;;;12.50;99.90;;;;;;5091019;28;20386;-69
2023/03/04 10:45:47;;;;;;;9.18;1.45;;;12.20;99.90;;;;;;5081044;28;20043;-69
2023/03/04 10:48:26;;;;;;;2.72;0.95;;;12.00;99.90;;;;;;5090931;28;20061;-71
2023/03/04 10:50:51;;;;;;;4.32;0.70;;;11.80;99.90;;;;;;5086907;28;20027;-73
2023/03/04 10:53:35;;;;;;;3.55;0.50;;;11.80;99.90;;;;;;5081474;28;20396;-71
2023/03/04 10:56:02;;;;;;;2.70;0.70;;;11.90;99.90;;;;;;5099295;28;20043;-69
2023/03/04 10:58:33;;;;;;;5.50;1.00;;;12.50;99.90;;;;;;5089202;28;20035;-69
2023/03/04 11:01:04;;;;;;;2.38;0.82;;;13.50;99.90;;;;;;5083240;28;20020;-70
2023/03/04 11:03:35;;;;;;;1.77;0.80;;;14.70;99.90;;;;;;5090549;28;20028;-70
2023/03/04 11:06:16;;;;;;;4.65;1.38;;;15.30;99.90;;;;;;5108510;28;20280;-72
2023/03/04 11:08:42;;;;;;;6.30;0.90;;;15.10;99.90;;;;;;5097126;28;20028;-74
2023/03/04 11:11:24;;;;;;;6.28;1.30;;;14.90;99.90;;;;;;5098434;28;20028;-72
2023/03/04 11:14:00;;;;;;;7.10;1.60;;;14.50;99.90;;;;;;5076994;28;20528;-72
2023/03/04 11:16:29;;;;;;;10.23;1.60;;;14.20;99.90;;;;;;5095654;28;20056;-71
2023/03/04 11:19:04;;;;;;;9.55;1.83;;;14.00;99.90;;;;;;5095106;28;20035;-69
2023/03/04 11:21:36;;;;;;;3.88;1.15;;;13.80;99.90;;;;;;5094195;28;20029;-73
2023/03/04 11:24:11;;;;;;;;;;;13.50;99.90;;;;;;5095617;28;20036;-75
2023/03/04 11:26:48;;;;;;;2.97;1.10;;;13.20;99.90;;;;;;5076619;28;20302;-71
2023/03/04 11:29:22;;;;;;;8.73;1.30;;;12.80;99.90;;;;;;5094977;28;20044;-72
2023/03/04 11:31:54;;;;;;;3.50;1.27;;;12.50;99.90;;;;;;5094080;28;20036;-70
2023/03/04 11:34:47;;;;;;;7.18;1.55;;;12.30;99.90;;;;;;5094232;28;20107;-73
2023/03/04 11:37:27;;;;;;;;;;;12.10;99.90;;;;;;5092663;28;20082;-74
2023/03/04 11:40:04;;;;;;;6.07;1.85;;;12.10;99.90;;;;;;5094318;28;19908;-73
2023/03/04 11:42:46;;;;;;;7.22;1.30;;;12.40;99.90;;;;;;5094874;28;20036;-72
2023/03/04 11:45:20;;;;;;;6.25;0.93;;;12.70;99.90;;;;;;5095140;28;20103;-73
2023/03/04 11:47:58;;;;;;;6.43;1.00;;;12.70;99.90;;;;;;5094613;28;20055;-75
2023/03/04 11:50:48;;;;;;;6.57;1.20;;;12.60;99.90;;;;;;5094586;28;20020;-72
2023/03/04 11:53:56;;;;;;;2.63;0.70;;;12.40;99.90;;;;;;5094686;28;20055;-70
2023/03/04 11:56:21;;;;;;;9.18;1.45;;;12.20;99.90;;;;;;5086310;28;20395;-73
2023/03/04 11:59:19;;;;;;;10.07;1.50;;;12.10;99.90;;;;;;5087265;28;20043;-71
2023/03/04 12:02:14;;;;;;;8.38;1.40;;;12.10;99.90;;;;;;5035058;28;20111;-72
2023/03/04 12:05:08;;;;;;;5.45;1.27;;;12.10;99.90;;;;;;5091593;28;20035;-72
2023/03/04 12:07:33;;;;;;;6.40;0.80;;;12.00;99.90;;;;;;5093800;28;20047;-70
2023/03/04 12:10:29;;;;;;;7.45;1.38;;;11.70;99.90;;;;;;5093976;28;20024;-71
2023/03/04 12:13:12;;;;;;;4.57;1.65;;;11.40;99.90;;;;;;5092615;28;20036;-71
2023/03/04 12:16:23;;;;;;;12.20;1.17;;;11.30;99.90;;;;;;5073963;28;20029;-72
2023/03/04 12:19:07;;;;;;;3.65;0.80;;;11.60;99.90;;;;;;5073255;28;20039;-70
2023/03/04 12:21:57;;;;;;;7.88;1.15;;;11.80;99.90;;;;;;5084099;28;20028;-73
2023/03/04 12:24:47;;;;;;;7.70;1.50;;;11.80;99.90;;;;;;5086886;28;20561;-72
2023/03/04 12:27:45;;;;;;;10.80;2.83;;;12.00;99.90;;;;;;5090661;28;20499;-71
2023/03/04 12:30:45;;;;;;;8.40;2.08;;;12.30;99.90;;;;;;5090329;28;20464;-71
2023/03/04 12:33:34;;;;;;;11.98;2.65;;;12.70;99.90;;;;;;5099597;28;20115;-73
2023/03/04 12:36:09;;;;;;;16.75;3.10;;;13.40;99.90;;;;;;5094290;28;20031;-68
2023/03/04 12:39:15;;;;;;;10.68;2.03;;;13.70;99.40;;;;;;5103385;28;20055;-72
2023/03/04 12:41:44;;;;;;;11.02;2.22;;;13.70;98.90;;;;;;5092904;28;20035;-70
2023/03/04 12:44:16;;;;;;;11.73;2.40;;;13.50;98.90;;;;;;5094005;28;20020;-71
2023/03/04 12:46:56;;;;;;;;;;;13.20;99.30;;;;;;5093424;28;20036;-73
2023/03/04 12:49:45;;;;;;;19.33;3.28;;;13.10;99.60;;;;;;5093620;28;19953;-71
2023/03/04 12:52:40;;;;;;;13.88;2.55;;;13.00;99.90;;;;;;5092258;28;20036;-73
2023/03/04 12:55:12;;;;;;;9.88;2.40;;;13.00;99.90;;;;;;5093145;28;20118;-73
2023/03/04 12:57:39;;;;;;;9.80;1.60;;;13.10;99.60;;;;;;5093254;28;20039;-72
2023/03/04 13:00:23;;;;;;;12.57;2.65;;;12.90;99.30;;;;;;5092908;28;20114;-71
2023/03/04 13:03:14;;;;;;;12.68;3.38;;;12.60;99.90;;;;;;5093068;28;20028;-72